Time;durP1;ratioP1;P1;durP2;ratioP2;P2;SDS_P1;SDS_P2;PMS_P1;PMS_P2;Temp;Humidity;BMP_temperature;BMP_pressure;BME280_temperature;BME280_humidity;BME280_pressure;Samples;Min_cycle;Max_cycle;Signal;HPM_P1;HPM_P2
2023/10/01 00:02:21;;;;;;;7.05;2.58;;;;;;;12.77;100.00;99662.66;5158433;27;20134;-60
2023/10/01 00:04:47;;;;;;;13.10;2.97;;;;;;;12.78;100.00;99654.03;5158661;27;20053;-60
2023/10/01 00:07:13;;;;;;;14.63;2.90;;;;;;;12.68;100.00;99652.69;5158283;27;20051;-60
2023/10/01 00:09:38;;;;;;;8.52;2.42;;;;;;;12.74;100.00;99624.88;5158512;27;20125;-59
2023/10/01 00:12:05;;;;;;;11.30;3.22;;;;;;;12.55;100.00;99623.78;5158118;27;20429;-59
2023/10/01 00:14:31;;;;;;;13.13;3.75;;;;;;;12.75;100.00;99620.97;5158597;27;20227;-60
2023/10/01 00:16:57;;;;;;;9.52;3.15;;;;;;;12.57;100.00;99610.47;5158072;27;20183;-59
2023/10/01 00:19:24;;;;;;;11.73;3.30;;;;;;;12.68;100.00;99622.44;5158524;27;20054;-59
2023/10/01 00:21:50;;;;;;;10.23;2.53;;;;;;;12.62;100.00;99615.66;5158542;27;20332;-59
2023/10/01 00:24:16;;;;;;;10.95;2.90;;;;;;;12.66;100.00;99616.53;5158226;27;20085;-59
2023/10/01 00:26:43;;;;;;;9.20;2.90;;;;;;;12.62;100.00;99612.91;5158307;27;20085;-59
2023/10/01 00:29:09;;;;;;;17.67;3.40;;;;;;;12.51;100.00;99600.94;5158047;27;20123;-60
2023/10/01 00:31:36;;;;;;;14.73;3.45;;;;;;;12.52;100.00;99582.47;5158068;27;20412;-60
2023/10/01 00:34:03;;;;;;;13.10;2.70;;;;;;;12.40;100.00;99577.97;5157983;27;20046;-60
2023/10/01 00:36:30;;;;;;;14.88;2.50;;;;;;;12.55;100.00;99568.78;5158315;27;20050;-60
2023/10/01 00:38:56;;;;;;;21.02;3.08;;;;;;;12.53;100.00;99554.63;5157812;27;20042;-60
2023/10/01 00:41:22;;;;;;;14.27;2.83;;;;;;;12.36;100.00;99555.09;5158167;27;20312;-60
2023/10/01 00:43:48;;;;;;;12.65;3.60;;;;;;;12.45;100.00;99536.41;5157793;27;20066;-60
2023/10/01 00:46:14;;;;;;;11.60;2.83;;;;;;;12.35;100.00;99551.56;5158203;27;20141;-60
2023/10/01 00:48:42;;;;;;;7.38;2.53;;;;;;;12.44;100.00;99554.84;5157622;27;20137;-60
2023/10/01 00:51:08;;;;;;;16.73;3.30;;;;;;;12.36;100.00;99544.91;5157781;27;20046;-59
2023/10/01 00:53:35;;;;;;;14.77;2.60;;;;;;;12.45;100.00;99539.16;5157924;27;20219;-60
2023/10/01 00:56:02;;;;;;;10.93;2.67;;;;;;;12.23;100.00;99527.03;5157547;27;20058;-59
2023/10/01 00:58:28;;;;;;;17.67;3.08;;;;;;;12.16;100.00;99505.72;5157971;27;20079;-60
2023/10/01 01:00:54;;;;;;;10.20;2.75;;;;;;;12.09;100.00;99488.28;5160671;27;20054;-59
2023/10/01 01:03:22;;;;;;;13.32;2.63;;;;;;;12.18;100.00;99491.56;5161454;27;20051;-60
2023/10/01 01:06:12;;;;;;;21.08;3.83;;;;;;;12.10;100.00;99487.94;5161118;27;20188;-60
2023/10/01 01:08:47;;;;;;;13.45;3.83;;;;;;;12.08;100.00;99481.22;5161604;27;20047;-59
2023/10/01 01:11:15;;;;;;;17.27;4.03;;;;;;;12.17;100.00;99477.06;5160850;27;20082;-59
2023/10/01 01:13:41;;;;;;;12.10;2.90;;;;;;;12.01;100.00;99457.16;5160941;27;20051;-59
2023/10/01 01:16:09;;;;;;;14.55;2.92;;;;;;;12.12;100.00;99446.31;5161278;27;20046;-60
2023/10/01 01:18:36;;;;;;;18.60;3.67;;;;;;;12.12;100.00;99449.84;5160845;27;20111;-60
2023/10/01 01:21:09;;;;;;;20.58;3.30;;;;;;;12.24;100.00;99463.41;5161097;27;20409;-60
2023/10/01 01:23:36;;;;;;;17.63;3.35;;;;;;;12.08;100.00;99456.47;5160936;27;20133;-60
2023/10/01 01:26:02;;;;;;;15.27;2.78;;;;;;;12.06;100.00;99467.03;5161245;27;20103;-60
2023/10/01 01:28:30;;;;;;;14.70;2.60;;;;;;;12.19;100.00;99477.47;5160734;27;20046;-59
2023/10/01 01:30:58;;;;;;;10.02;2.78;;;;;;;11.93;100.00;99471.94;5161034;27;20107;-59
2023/10/01 01:33:26;;;;;;;10.98;3.28;;;;;;;12.01;100.00;99463.44;5161028;27;20050;-59
2023/10/01 01:35:54;;;;;;;10.23;2.70;;;;;;;12.08;100.00;99457.25;5161123;27;20054;-59
2023/10/01 01:38:20;;;;;;;13.02;2.45;;;;;;;12.17;100.00;99460.56;5160667;27;20321;-60
2023/10/01 01:40:50;;;;;;;17.73;2.80;;;;;;;12.28;100.00;99474.47;5160720;27;20062;-59
2023/10/01 01:43:21;;;;;;;14.73;3.40;;;;;;;12.43;100.00;99472.75;5160856;27;20043;-60
2023/10/01 01:45:48;;;;;;;14.70;2.90;;;;;;;12.48;100.00;99488.91;5160644;27;20110;-60
2023/10/01 01:48:30;;;;;;;15.35;2.65;;;;;;;12.63;100.00;99498.97;5160787;27;20059;-60
2023/10/01 01:50:58;;;;;;;10.45;2.53;;;;;;;12.63;100.00;99533.94;5160433;27;20119;-60
2023/10/01 01:53:26;;;;;;;23.02;2.97;;;;;;;12.61;100.00;99541.75;5160720;27;20050;-60
2023/10/01 01:55:56;;;;;;;13.73;3.10;;;;;;;12.56;100.00;99567.63;5160349;27;20099;-58
2023/10/01 01:58:24;;;;;;;23.52;3.88;;;;;;;12.53;100.00;99570.28;5160843;27;20042;-59
2023/10/01 02:03:32;;;;;;;9.82;2.80;;;;;;;12.38;100.00;99591.28;5146876;27;20435;-59
2023/10/01 02:05:59;;;;;;;15.30;2.78;;;;;;;12.32;100.00;99592.72;5160364;27;20467;-59
2023/10/01 02:08:34;;;;;;;9.57;2.78;;;;;;;12.19;100.00;99595.66;5160314;27;20137;-59
2023/10/01 02:11:04;;;;;;;14.27;2.78;;;;;;;12.18;100.00;99574.03;5160327;27;20377;-60
2023/10/01 02:13:30;;;;;;;7.50;2.50;;;;;;;12.23;100.00;99576.50;5160064;27;20088;-59
2023/10/01 02:16:18;;;;;;;12.98;3.08;;;;;;;12.15;100.00;99566.53;5160492;27;20137;-59
2023/10/01 02:18:42;;;;;;;14.50;2.70;;;;;;;12.02;100.00;99541.94;5159794;27;20046;-60
2023/10/01 02:21:16;;;;;;;10.60;2.85;;;;;;;12.28;100.00;99545.94;5160194;27;20137;-60
2023/10/01 02:23:42;;;;;;;10.23;2.83;;;;;;;12.34;100.00;99557.44;5160221;27;20047;-59
2023/10/01 02:26:08;;;;;;;17.08;2.58;;;;;;;12.24;100.00;99548.63;5160048;27;20133;-60
2023/10/01 02:28:36;;;;;;;14.93;3.25;;;;;;;12.25;100.00;99555.72;5160155;27;20047;-59
2023/10/01 02:31:06;;;;;;;15.05;2.75;;;;;;;12.40;100.00;99564.22;5159757;27;20050;-59
2023/10/01 02:33:55;;;;;;;9.35;2.63;;;;;;;12.35;100.00;99573.56;5160127;27;20043;-59
2023/10/01 02:36:23;;;;;;;16.70;3.00;;;;;;;12.48;100.00;99571.41;5159566;27;20042;-59
2023/10/01 02:38:53;;;;;;;15.82;3.20;;;;;;;12.54;100.00;99582.91;5160124;27;20047;-58
2023/10/01 02:41:25;;;;;;;15.82;2.88;;;;;;;12.54;100.00;99591.16;5159913;27;20059;-59
2023/10/01 02:43:52;;;;;;;14.52;3.60;;;;;;;12.68;100.00;99603.16;5159714;27;20061;-59
2023/10/01 02:46:26;;;;;;;11.73;2.85;;;;;;;12.34;100.00;99612.41;5159864;27;20072;-60
2023/10/01 02:48:52;;;;;;;;;;;;;;;12.52;100.00;99602.50;5160078;27;20093;-59
2023/10/01 02:51:32;;;;;;;12.90;2.30;;;;;;;12.61;100.00;99605.81;5159635;27;19923;-60
2023/10/01 02:54:03;;;;;;;11.85;2.67;;;;;;;12.74;100.00;99624.88;5159460;27;20107;-60
2023/10/01 02:56:33;;;;;;;13.63;3.25;;;;;;;12.78;100.00;99626.53;5159889;27;20057;-58
2023/10/01 02:59:09;;;;;;;9.40;2.67;;;;;;;12.88;100.00;99647.13;5159350;27;20336;-59
2023/10/01 03:01:37;;;;;;;16.10;2.88;;;;;;;12.79;100.00;99654.81;5159493;27;20133;-60
2023/10/01 03:04:08;;;;;;;11.55;2.28;;;;;;;12.99;100.00;99666.56;5159480;27;20110;-59
2023/10/01 03:06:34;;;;;;;13.07;2.88;;;;;;;13.00;100.00;99668.94;5159368;27;20134;-59
2023/10/01 03:09:00;;;;;;;14.65;2.50;;;;;;;12.85;100.00;99678.13;5159460;27;20365;-60
2023/10/01 03:11:34;;;;;;;8.55;2.55;;;;;;;12.84;100.00;99674.59;5159189;27;20103;-59
2023/10/01 03:14:08;;;;;;;14.25;2.78;;;;;;;12.86;100.00;99679.69;5159459;27;20055;-59
2023/10/01 03:16:42;;;;;;;14.45;3.05;;;;;;;13.04;100.00;99685.53;5159071;27;20046;-59
2023/10/01 03:19:18;;;;;;;14.85;3.25;;;;;;;13.00;100.00;99695.69;5159495;27;20146;-59
2023/10/01 03:24:29;;;;;;;9.02;2.25;;;;;;;12.92;100.00;99687.28;5159029;27;20489;-59
2023/10/01 03:26:58;;;;;;;11.38;3.00;;;;;;;12.90;100.00;99688.84;5159016;27;20405;-60
2023/10/01 03:29:34;;;;;;;9.35;2.20;;;;;;;12.84;100.00;99690.31;5158862;27;20086;-58
2023/10/01 03:32:26;;;;;;;10.07;3.15;;;;;;;12.91;100.00;99685.69;5159060;27;20051;-59
2023/10/01 03:34:46;;;;;;;12.38;2.60;;;;;;;12.79;100.00;99685.09;5158561;27;20129;-60
2023/10/01 03:37:19;;;;;;;12.50;2.40;;;;;;;12.91;100.00;99679.41;5159241;27;20190;-60
2023/10/01 03:39:46;;;;;;;13.90;2.88;;;;;;;12.89;100.00;99679.75;5158558;27;20050;-59
2023/10/01 03:42:13;;;;;;;10.77;2.42;;;;;;;12.91;100.00;99690.41;5158853;27;20062;-59
2023/10/01 03:47:23;;;;;;;11.70;2.38;;;;;;;13.00;100.00;99693.72;5158346;27;20054;-59
2023/10/01 03:49:54;;;;;;;10.48;2.72;;;;;;;12.94;100.00;99703.44;5158849;27;20043;-59
2023/10/01 03:52:21;;;;;;;8.60;2.95;;;;;;;12.81;100.00;99710.28;5158569;27;20089;-60
2023/10/01 03:55:00;;;;;;;9.18;2.67;;;;;;;12.97;100.00;99696.41;5158911;27;20042;-59
2023/10/01 03:57:29;;;;;;;21.30;5.00;;;;;;;12.93;100.00;99688.88;5158436;27;20051;-60
2023/10/01 03:59:57;;;;;;;12.18;2.42;;;;;;;13.00;100.00;99701.19;5158873;27;20157;-59
2023/10/01 04:02:27;;;;;;;8.70;2.70;;;;;;;12.80;100.00;99708.72;5158529;27;20043;-59
2023/10/01 04:04:57;;;;;;;15.43;3.58;;;;;;;12.90;100.00;99702.59;5158597;27;20361;-60
2023/10/01 04:07:26;;;;;;;8.63;2.35;;;;;;;12.88;100.00;99708.44;5158405;27;20137;-59
2023/10/01 04:09:52;;;;;;;13.40;2.90;;;;;;;13.00;100.00;99720.44;5158352;27;20451;-59
2023/10/01 04:12:19;;;;;;;16.73;2.60;;;;;;;13.02;100.00;99723.63;5158638;27;20501;-60
2023/10/01 04:14:48;;;;;;;10.07;2.75;;;;;;;12.47;100.00;99721.06;5158245;27;20069;-60
2023/10/01 04:17:17;;;;;;;15.02;2.63;;;;;;;12.81;100.00;99710.28;5158561;27;20062;-59
2023/10/01 04:19:48;;;;;;;11.90;3.17;;;;;;;12.85;100.00;99711.13;5158102;27;20081;-59
2023/10/01 04:22:15;;;;;;;13.43;2.65;;;;;;;12.92;100.00;99714.00;5158443;27;20054;-60
2023/10/01 04:24:42;;;;;;;12.35;3.20;;;;;;;12.85;100.00;99713.88;5157937;27;20381;-59
2023/10/01 04:27:23;;;;;;;17.55;3.00;;;;;;;12.78;100.00;99716.53;5158162;27;20046;-60
2023/10/01 04:29:57;;;;;;;9.18;2.78;;;;;;;12.66;100.00;99714.72;5157985;27;20075;-59
2023/10/01 04:32:23;;;;;;;;;;;;;;;12.90;100.00;99721.84;5158531;27;20086;-59
2023/10/01 04:34:49;;;;;;;11.75;2.85;;;;;;;12.80;100.00;99720.50;5159753;27;19923;-59
2023/10/01 04:37:36;;;;;;;15.10;3.13;;;;;;;12.88;100.00;99726.91;5161603;27;20062;-59
2023/10/01 04:40:03;;;;;;;13.27;3.17;;;;;;;12.83;100.00;99724.47;5161933;27;20084;-59
2023/10/01 04:42:30;;;;;;;11.02;2.50;;;;;;;12.93;100.00;99729.38;5161534;27;20050;-60
2023/10/01 04:44:56;;;;;;;13.93;2.83;;;;;;;12.98;100.00;99728.28;5161883;27;20078;-60
2023/10/01 04:47:31;;;;;;;10.07;2.53;;;;;;;12.71;100.00;99733.69;5161743;27;20056;-60
2023/10/01 04:49:57;;;;;;;6.15;2.45;;;;;;;12.79;100.00;99731.84;5161278;27;20050;-60
2023/10/01 04:52:24;;;;;;;11.52;2.67;;;;;;;12.72;100.00;99727.81;5161404;27;20191;-60
2023/10/01 04:54:50;;;;;;;5.82;2.53;;;;;;;12.80;100.00;99720.50;5161415;27;20077;-60
2023/10/01 04:57:19;;;;;;;7.35;2.45;;;;;;;12.85;100.00;99708.38;5161450;27;20393;-60
2023/10/01 04:59:56;;;;;;;7.07;2.08;;;;;;;12.89;100.00;99712.78;5161223;27;20054;-60
2023/10/01 05:02:23;;;;;;;7.13;2.95;;;;;;;12.88;100.00;99710.41;5161529;27;20138;-60
2023/10/01 05:04:49;;;;;;;12.40;3.08;;;;;;;12.90;100.00;99706.13;5161231;27;20058;-60
2023/10/01 05:07:15;;;;;;;7.20;2.42;;;;;;;12.95;100.00;99702.28;5161529;27;20465;-59
2023/10/01 05:09:43;;;;;;;8.02;2.25;;;;;;;13.11;100.00;99710.41;5160906;27;20133;-60
2023/10/01 05:12:11;;;;;;;8.88;2.13;;;;;;;12.97;100.00;99697.22;5161008;27;20047;-60
2023/10/01 05:14:56;;;;;;;9.18;3.10;;;;;;;13.12;100.00;99709.22;5161366;27;20050;-60
2023/10/01 05:17:22;;;;;;;9.82;2.35;;;;;;;13.02;100.00;99690.59;5161094;27;20149;-59
2023/10/01 05:19:48;;;;;;;6.85;2.38;;;;;;;13.04;100.00;99683.56;5161330;27;20051;-59
2023/10/01 05:22:14;;;;;;;8.25;2.80;;;;;;;13.12;100.00;99689.97;5160940;27;20086;-59
2023/10/01 05:24:48;;;;;;;9.57;2.42;;;;;;;13.00;100.00;99690.19;5161153;27;20398;-59
2023/10/01 05:27:18;;;;;;;5.43;2.25;;;;;;;13.08;100.00;99709.19;5160795;27;20102;-60
2023/10/01 05:29:45;;;;;;;5.35;2.28;;;;;;;13.23;100.00;99703.88;5161180;27;20123;-61
2023/10/01 05:32:11;;;;;;;7.63;2.42;;;;;;;13.35;100.00;99682.47;5160589;27;20097;-59
2023/10/01 05:34:38;;;;;;;8.13;2.30;;;;;;;13.31;100.00;99656.88;5160678;27;20059;-61
2023/10/01 05:37:08;;;;;;;10.27;2.35;;;;;;;13.41;100.00;99652.69;5160966;27;20058;-61
2023/10/01 05:39:55;;;;;;;11.32;2.67;;;;;;;13.39;100.00;99642.03;5160730;27;20046;-60
2023/10/01 05:42:24;;;;;;;8.02;2.83;;;;;;;13.41;100.00;99633.41;5160713;27;20075;-60
2023/10/01 05:44:51;;;;;;;8.32;2.38;;;;;;;13.39;100.00;99635.72;5160219;27;20061;-59
2023/10/01 05:47:17;;;;;;;15.35;2.83;;;;;;;13.37;100.00;99594.00;5160867;27;20051;-60
2023/10/01 05:49:49;;;;;;;13.07;2.15;;;;;;;13.57;100.00;99606.47;5160214;27;20043;-60
2023/10/01 05:52:17;;;;;;;5.60;1.80;;;;;;;13.79;100.00;99559.88;5160760;27;20092;-59
2023/10/01 05:54:50;;;;;;;6.03;2.13;;;;;;;13.72;100.00;99516.50;5160209;27;20042;-59
2023/10/01 05:57:16;;;;;;;7.40;2.50;;;;;;;14.12;100.00;99459.78;5160211;27;20051;-60
2023/10/01 05:59:43;;;;;;;8.55;1.90;;;;;;;14.19;100.00;99382.63;5160460;27;20055;-59
2023/10/01 06:02:28;;;;;;;11.07;2.72;;;;;;;14.32;100.00;99328.75;5160390;27;20133;-59
2023/10/01 06:04:54;;;;;;;11.98;3.63;;;;;;;14.50;100.00;99237.03;5160552;27;20046;-59
2023/10/01 06:07:24;;;;;;;10.50;2.33;;;;;;;14.48;100.00;99153.88;5160004;27;20364;-59
2023/10/01 06:09:51;;;;;;;9.68;2.03;;;;;;;14.53;100.00;99090.88;5160316;27;20051;-60
2023/10/01 06:12:18;;;;;;;7.15;1.85;;;;;;;14.53;100.00;99148.81;5160053;27;20047;-60
2023/10/01 06:14:45;;;;;;;10.63;2.83;;;;;;;14.41;100.00;99181.44;5160418;27;20050;-60
2023/10/01 06:17:11;;;;;;;6.72;2.25;;;;;;;14.47;100.00;99230.31;5159943;27;20050;-60
2023/10/01 06:19:40;;;;;;;8.27;2.20;;;;;;;14.43;100.00;99366.63;5160097;27;20380;-60
2023/10/01 06:22:13;;;;;;;5.60;2.13;;;;;;;14.27;100.00;99369.72;5160101;27;20054;-60
2023/10/01 06:24:40;;;;;;;13.90;2.95;;;;;;;14.25;100.00;99394.09;5159837;27;20058;-60
2023/10/01 06:27:06;;;;;;;11.20;2.38;;;;;;;14.36;100.00;99359.09;5160147;27;20086;-60
2023/10/01 06:29:33;;;;;;;14.85;3.20;;;;;;;14.29;100.00;99323.22;5159769;27;20046;-61
2023/10/01 06:32:00;;;;;;;9.75;2.30;;;;;;;14.38;100.00;99353.22;5159874;27;20352;-60
2023/10/01 06:34:31;;;;;;;8.40;1.88;;;;;;;14.46;100.00;99308.75;5159670;27;20416;-61
2023/10/01 06:36:59;;;;;;;7.80;2.40;;;;;;;14.56;100.00;99291.47;5160122;27;20077;-60
2023/10/01 06:39:25;;;;;;;4.30;2.00;;;;;;;14.58;100.00;99286.34;5159425;27;20517;-60
2023/10/01 06:41:52;;;;;;;7.57;1.83;;;;;;;14.71;100.00;99280.47;5159984;27;20061;-61
2023/10/01 06:44:19;;;;;;;9.60;2.47;;;;;;;14.76;100.00;99198.09;5159383;27;20080;-60
2023/10/01 06:46:47;;;;;;;11.80;4.55;;;;;;;14.85;100.00;99145.25;5159686;27;20153;-61
2023/10/01 06:49:18;;;;;;;10.23;3.20;;;;;;;14.92;100.00;99122.41;5159763;27;20065;-61
2023/10/01 06:51:44;;;;;;;10.68;2.65;;;;;;;14.83;100.00;99180.78;5159574;27;20370;-61
2023/10/01 06:54:11;;;;;;;10.57;2.78;;;;;;;14.89;100.00;99167.34;5159553;27;20050;-60
2023/10/01 06:56:43;;;;;;;4.90;2.03;;;;;;;15.22;100.00;99006.78;5158788;27;20141;-60
2023/10/01 06:59:17;;;;;;;11.10;2.50;;;;;;;15.34;100.00;98853.66;5159396;27;20166;-60
2023/10/01 07:01:50;;;;;;;4.88;1.88;;;;;;;15.85;100.00;98744.31;5159259;27;20089;-61
2023/10/01 07:04:19;;;;;;;12.60;4.03;;;;;;;15.48;100.00;98612.44;5159663;27;20057;-60
2023/10/01 07:06:45;;;;;;;8.63;2.58;;;;;;;15.69;100.00;98619.72;5158943;27;20042;-60
2023/10/01 07:09:27;;;;;;;7.60;2.05;;;;;;;15.42;100.00;98661.81;5159148;27;20142;-60
2023/10/01 07:11:56;;;;;;;5.78;2.45;;;;;;;15.63;100.00;98735.44;5159219;27;20046;-60
2023/10/01 07:14:30;;;;;;;4.07;1.70;;;;;;;15.82;100.00;98648.38;5158891;27;20050;-60
2023/10/01 07:16:58;;;;;;;12.27;3.10;;;;;;;16.02;100.00;98542.72;5159356;27;20106;-59
2023/10/01 07:19:24;;;;;;;8.68;2.30;;;;;;;16.05;100.00;98442.34;5158969;27;20046;-61
2023/10/01 07:21:56;;;;;;;10.32;3.45;;;;;;;16.37;100.00;98412.19;5159269;27;20153;-60
2023/10/01 07:24:23;;;;;;;10.30;2.38;;;;;;;16.66;100.00;98393.09;5158626;27;20043;-60
2023/10/01 07:26:50;;;;;;;6.78;2.08;;;;;;;16.81;100.00;98363.16;5158625;27;20053;-60
2023/10/01 07:29:17;;;;;;;12.50;2.22;;;;;;;16.97;100.00;98364.44;5158529;27;20080;-61
2023/10/01 07:31:43;;;;;;;4.22;1.92;;;;;;;17.24;100.00;98365.03;5158430;27;20047;-61
2023/10/01 07:34:13;;;;;;;7.75;3.20;;;;;;;17.31;100.00;98362.09;5158903;27;20092;-60
2023/10/01 07:36:42;;;;;;;6.90;2.20;;;;;;;17.59;100.00;98371.78;5158682;27;20064;-61
2023/10/01 07:39:09;;;;;;;5.70;1.63;;;;;;;17.47;100.00;98393.84;5158688;27;20111;-61
2023/10/01 07:41:38;;;;;;;9.98;3.40;;;;;;;17.69;100.00;98383.03;5158414;27;20061;-61
2023/10/01 07:44:08;;;;;;;9.90;1.88;;;;;;;17.65;100.00;98428.22;5158855;27;20150;-60
2023/10/01 07:46:34;;;;;;;3.80;1.88;;;;;;;18.14;100.00;98449.72;5158535;27;20066;-61
2023/10/01 07:49:00;;;;;;;7.28;1.80;;;;;;;18.64;100.00;98497.66;5158946;27;20068;-61
2023/10/01 07:51:26;;;;;;;11.45;2.20;;;;;;;18.56;100.00;98558.16;5158395;27;20058;-61
2023/10/01 07:53:53;;;;;;;6.75;2.10;;;;;;;18.63;100.00;98571.84;5158793;27;20082;-61
2023/10/01 07:56:21;;;;;;;13.00;2.60;;;;;;;18.47;100.00;98583.72;5158164;27;20368;-60
2023/10/01 07:58:47;;;;;;;6.18;1.70;;;;;;;19.07;100.00;98604.91;5158560;27;20065;-60
2023/10/01 08:04:06;;;;;;;3.63;1.80;;;;;;;18.71;100.00;98620.41;5152884;27;20422;-60
2023/10/01 08:06:34;;;;;;;5.13;2.00;;;;;;;17.68;100.00;98559.66;5158521;27;20114;-62
2023/10/01 08:09:08;;;;;;;5.65;2.10;;;;;;;17.92;100.00;98513.22;5157862;27;20331;-60
2023/10/01 08:14:20;;;;;;;7.82;3.08;;;;;;;18.36;100.00;98522.16;5158136;27;20098;-61
2023/10/01 08:16:47;;;;;;;10.63;2.05;;;;;;;17.99;100.00;98517.81;5158306;27;20137;-61
2023/10/01 08:19:15;;;;;;;7.97;3.00;;;;;;;17.91;100.00;98485.94;5158324;27;20141;-61
2023/10/01 08:21:48;;;;;;;11.55;1.75;;;;;;;17.61;100.00;98509.91;5157953;27;20104;-62
2023/10/01 08:24:18;;;;;;;5.97;3.15;;;;;;;17.77;100.00;98471.19;5158301;27;20046;-61
2023/10/01 08:26:49;;;;;;;3.72;1.63;;;;;;;17.94;100.00;98482.31;5158089;27;20092;-61
2023/10/01 08:29:15;;;;;;;14.93;3.40;;;;;;;17.92;100.00;98449.44;5158327;27;20107;-60
2023/10/01 08:34:23;;;;;;;11.40;2.00;;;;;;;17.49;100.00;98467.00;5155550;27;20361;-61
2023/10/01 08:36:49;;;;;;;6.07;2.03;;;;;;;17.73;100.00;98470.47;5157681;27;20088;-61
2023/10/01 08:39:34;;;;;;;8.13;3.20;;;;;;;17.79;100.00;98448.56;5157679;27;20332;-61
2023/10/01 08:42:08;;;;;;;6.95;2.00;;;;;;;17.60;100.00;98480.66;5157838;27;20107;-62
2023/10/01 08:44:44;;;;;;;;;;;;;;;17.51;100.00;98474.88;5158128;27;20050;-61
2023/10/01 08:47:21;;;;;;;5.57;1.90;;;;;;;17.30;100.00;98418.72;5158147;27;20164;-60
2023/10/01 08:49:49;;;;;;;8.55;3.00;;;;;;;17.25;100.00;98401.81;5157478;27;20443;-60
2023/10/01 08:52:19;;;;;;;11.80;2.05;;;;;;;17.34;100.00;98429.72;5158127;27;20047;-61
2023/10/01 08:54:48;;;;;;;3.65;1.50;;;;;;;17.07;100.00;98425.13;5157490;27;20051;-61
2023/10/01 08:57:17;;;;;;;8.02;1.95;;;;;;;17.00;100.00;98397.59;5157431;27;20480;-60
2023/10/01 08:59:43;;;;;;;9.10;1.92;;;;;;;17.13;100.00;98398.50;5157523;27;20408;-60
2023/10/01 09:02:15;;;;;;;4.03;1.70;;;;;;;16.91;100.00;98408.44;5157585;27;20042;-60
2023/10/01 09:04:45;;;;;;;7.25;1.90;;;;;;;17.44;100.00;98414.09;5157635;27;20046;-61
2023/10/01 09:07:18;;;;;;;4.43;1.80;;;;;;;17.32;100.00;98426.59;5157416;27;20503;-59
2023/10/01 09:09:59;;;;;;;7.70;1.88;;;;;;;17.07;100.00;98454.81;5157307;27;20058;-60
2023/10/01 09:12:25;;;;;;;6.57;1.85;;;;;;;17.53;100.00;98487.13;5153983;27;20065;-61
2023/10/01 09:14:51;;;;;;;6.45;1.95;;;;;;;17.75;100.00;98523.47;5157751;27;20078;-61
2023/10/01 09:17:25;;;;;;;6.07;1.98;;;;;;;17.95;100.00;98555.97;5157182;27;20051;-61
2023/10/01 09:19:51;;;;;;;4.47;1.93;;;;;;;18.09;100.00;98577.81;5157534;27;20324;-62
2023/10/01 09:22:22;;;;;;;4.63;1.60;;;;;;;18.08;100.00;98543.75;5161013;27;20440;-60
2023/10/01 09:24:55;;;;;;;8.10;3.00;;;;;;;17.76;100.00;98527.00;5160939;27;20096;-61
2023/10/01 09:27:28;;;;;;;4.05;1.77;;;;;;;17.55;100.00;98551.19;5161139;27;20042;-61
2023/10/01 09:30:26;;;;;;;7.63;2.03;;;;;;;17.35;100.00;98503.31;5160607;27;20110;-62
2023/10/01 09:32:52;;;;;;;8.02;2.22;;;;;;;17.46;100.00;98503.09;5161127;27;20047;-61
2023/10/01 09:35:30;;;;;;;3.53;1.80;;;;;;;17.75;100.00;98534.56;5160572;27;20149;-60
2023/10/01 09:38:10;;;;;;;6.88;2.97;;;;;;;17.33;100.00;98492.66;5160601;27;20054;-62
2023/10/01 09:40:38;;;;;;;10.55;1.98;;;;;;;17.43;100.00;98488.13;5160843;27;20051;-60
2023/10/01 09:43:04;;;;;;;6.43;1.80;;;;;;;17.64;100.00;98525.69;5160743;27;20050;-61
2023/10/01 09:45:37;;;;;;;7.20;2.60;;;;;;;17.22;100.00;98494.84;5160946;27;20131;-60
2023/10/01 09:48:05;;;;;;;4.05;1.75;;;;;;;16.98;100.00;98441.53;5160587;27;20348;-60
2023/10/01 09:50:39;;;;;;;7.45;1.92;;;;;;;17.06;100.00;98473.44;5160673;27;20061;-61
2023/10/01 09:53:12;;;;;;;8.48;2.58;;;;;;;16.96;100.00;98466.09;5160438;27;20120;-62
2023/10/01 09:55:47;;;;;;;5.97;1.70;;;;;;;17.22;100.00;98502.38;5160789;27;20396;-61
2023/10/01 09:58:20;;;;;;;9.90;1.75;;;;;;;17.05;100.00;98505.06;5160589;27;20104;-61
2023/10/01 10:00:51;;;;;;;5.55;1.55;;;;;;;16.99;100.00;98472.75;5160343;27;20115;-60
2023/10/01 10:03:18;;;;;;;4.80;1.55;;;;;;;16.95;100.00;98464.53;5160455;27;20141;-61
2023/10/01 10:05:46;;;;;;;8.85;3.10;;;;;;;17.23;100.00;98452.13;5160296;27;20047;-61
2023/10/01 10:08:16;;;;;;;5.97;1.65;;;;;;;17.69;100.00;98511.31;5160399;27;20082;-60
2023/10/01 10:10:48;;;;;;;7.00;2.08;;;;;;;17.66;100.00;98478.94;5159875;27;20047;-62
2023/10/01 10:13:37;;;;;;;3.78;1.88;;;;;;;17.79;100.00;98515.09;5160536;27;20051;-60
2023/10/01 10:16:30;;;;;;;4.32;1.85;;;;;;;17.91;100.00;98563.56;5159990;27;20417;-62
2023/10/01 10:19:08;;;;;;;7.78;2.10;;;;;;;18.02;100.00;98605.72;5160115;27;20047;-60
2023/10/01 10:22:12;;;;;;;7.32;1.83;;;;;;;18.53;100.00;98664.47;5160282;27;20137;-61
2023/10/01 10:24:45;;;;;;;8.25;2.15;;;;;;;18.16;100.00;98608.22;5159922;27;20047;-60
2023/10/01 10:27:16;;;;;;;4.55;1.98;;;;;;;18.52;100.00;98668.44;5159859;27;20082;-60
2023/10/01 10:30:14;;;;;;;5.80;2.00;;;;;;;19.00;100.00;98717.78;5160160;27;20111;-61
2023/10/01 10:33:29;;;;;;;7.53;3.25;;;;;;;18.42;100.00;98650.81;5158340;27;20354;-61
2023/10/01 10:36:55;;;;;;;6.32;2.20;;;;;;;18.05;100.00;98668.66;5160198;27;20047;-61
2023/10/01 10:39:40;;;;;;;;;;;;;;;17.60;100.00;98620.00;5160414;27;20089;-62
2023/10/01 10:42:28;;;;;;;6.60;3.22;;;;;;;17.30;100.00;98623.72;5159657;27;19922;-61
2023/10/01 10:45:23;;;;;;;3.45;1.77;;;;;;;17.55;100.00;98583.69;5160071;27;20061;-60
2023/10/01 10:47:58;;;;;;;7.03;2.03;;;;;;;17.69;100.00;98577.84;5159600;27;20051;-61
2023/10/01 10:50:44;;;;;;;3.80;1.40;;;;;;;17.62;100.00;98620.34;5159561;27;20046;-61
2023/10/01 10:53:15;;;;;;;5.30;1.60;;;;;;;17.66;100.00;98600.91;5159593;27;20149;-62
2023/10/01 10:55:50;;;;;;;7.05;1.60;;;;;;;17.37;100.00;98601.44;5159419;27;20394;-61
2023/10/01 10:58:17;;;;;;;3.08;1.67;;;;;;;17.39;100.00;98564.97;5159865;27;20401;-61
2023/10/01 11:00:44;;;;;;;4.32;1.63;;;;;;;17.28;100.00;98556.09;5159222;27;20157;-60
2023/10/01 11:03:11;;;;;;;7.65;2.97;;;;;;;17.26;100.00;98552.94;5159520;27;20057;-61
2023/10/01 11:05:49;;;;;;;9.50;1.80;;;;;;;17.38;100.00;98586.34;5159590;27;20312;-61
2023/10/01 11:08:25;;;;;;;7.00;3.15;;;;;;;17.41;100.00;98584.72;5159343;27;20047;-60
2023/10/01 11:10:54;;;;;;;5.13;1.88;;;;;;;17.53;100.00;98548.09;5159217;27;20050;-60
2023/10/01 11:13:37;;;;;;;7.40;1.92;;;;;;;17.57;100.00;98534.94;5159215;27;20051;-61
2023/10/01 11:16:14;;;;;;;4.78;1.80;;;;;;;17.42;100.00;98533.66;5159495;27;20149;-60
2023/10/01 11:18:41;;;;;;;12.82;2.33;;;;;;;16.98;100.00;98488.59;5159040;27;20357;-61
2023/10/01 11:21:11;;;;;;;5.57;1.92;;;;;;;17.31;100.00;98519.22;5159481;27;20057;-60
2023/10/01 11:23:37;;;;;;;4.93;2.22;;;;;;;17.25;100.00;98493.22;5159212;27;20091;-61
2023/10/01 11:26:06;;;;;;;9.88;4.22;;;;;;;17.23;100.00;98524.13;5158853;27;20055;-60
2023/10/01 11:28:41;;;;;;;4.25;1.77;;;;;;;17.24;100.00;98499.97;5159215;27;20061;-61
2023/10/01 11:31:22;;;;;;;8.73;3.30;;;;;;;17.21;100.00;98443.44;5158832;27;20046;-60
2023/10/01 11:33:58;;;;;;;5.32;2.17;;;;;;;17.38;100.00;98430.44;5159137;27;20052;-60
2023/10/01 11:36:24;;;;;;;4.82;2.17;;;;;;;17.39;100.00;98484.63;5158743;27;20329;-60
2023/10/01 11:38:58;;;;;;;4.97;2.78;;;;;;;17.19;100.00;98531.72;5159121;27;20143;-61
2023/10/01 11:41:38;;;;;;;5.60;1.77;;;;;;;17.46;100.00;98564.06;5158626;27;20050;-61
2023/10/01 11:44:05;;;;;;;11.05;2.58;;;;;;;17.22;100.00;98497.63;5158310;27;20115;-60
2023/10/01 11:46:35;;;;;;;6.22;2.60;;;;;;;17.18;100.00;98513.53;5158918;27;20051;-61
2023/10/01 11:49:15;;;;;;;6.82;3.33;;;;;;;17.61;100.00;98535.63;5158745;27;20065;-61
2023/10/01 11:51:45;;;;;;;5.25;2.10;;;;;;;17.71;100.00;98556.03;5158814;27;20050;-61
2023/10/01 11:54:12;;;;;;;6.40;2.30;;;;;;;17.32;100.00;98521.56;5158524;27;20367;-61
2023/10/01 11:56:43;;;;;;;5.03;2.65;;;;;;;17.52;100.00;98565.91;5158777;27;20487;-60